createdAt,value
2018-01-22T00:00:43.683Z,2.3
2018-01-22T00:01:43.710Z,2.23
2018-01-22T00:02:43.671Z,2.24
2018-01-22T00:03:43.763Z,2.23
2018-01-22T00:04:43.758Z,2.24
2018-01-22T00:05:43.790Z,2.21
2018-01-22T00:06:43.684Z,2.2
2018-01-22T00:07:43.691Z,2.19
2018-01-22T00:08:43.773Z,2.17
2018-01-22T00:09:43.948Z,2.16
2018-01-22T00:10:43.866Z,2.16
2018-01-22T00:11:43.743Z,2.16
2018-01-22T00:12:43.709Z,2.16
2018-01-22T00:13:43.703Z,2.16
2018-01-22T00:14:43.717Z,2.17
2018-01-22T00:15:43.809Z,2.16
2018-01-22T00:16:45.160Z,2.16
2018-01-22T00:17:43.734Z,2.15
2018-01-22T00:18:43.903Z,2.11
2018-01-22T00:19:44.400Z,2.1
2018-01-22T00:20:43.754Z,2.1
2018-01-22T00:21:44.579Z,2.1
2018-01-22T00:22:43.725Z,2.09
2018-01-22T00:23:43.768Z,2.09
2018-01-22T00:24:43.754Z,2.08
2018-01-22T00:25:43.715Z,2.05
2018-01-22T00:26:43.880Z,2.02
2018-01-22T00:27:43.755Z,1.99
2018-01-22T00:28:45.911Z,1.97
2018-01-22T00:29:43.845Z,1.96
2018-01-22T00:30:43.974Z,1.94
2018-01-22T00:31:43.726Z,1.93
2018-01-22T00:32:43.730Z,1.89
2018-01-22T00:33:43.747Z,1.87
2018-01-22T00:34:43.899Z,1.87
2018-01-22T00:35:43.923Z,1.84
2018-01-22T00:36:43.868Z,1.82
2018-01-22T00:37:43.876Z,1.79
2018-01-22T00:38:43.908Z,1.78
2018-01-22T00:39:43.852Z,1.77
2018-01-22T00:40:43.840Z,1.73
2018-01-22T00:41:44.968Z,1.74
2018-01-22T00:42:43.858Z,1.72
2018-01-22T00:43:43.855Z,1.73
2018-01-22T00:44:43.846Z,1.74
2018-01-22T00:45:43.837Z,1.72
2018-01-22T00:46:43.863Z,1.74
2018-01-22T00:47:44.001Z,1.7
2018-01-22T00:48:43.857Z,1.71
2018-01-22T00:49:43.896Z,1.67
2018-01-22T00:50:43.931Z,1.66
2018-01-22T00:51:43.911Z,1.64
2018-01-22T00:52:43.844Z,1.65
2018-01-22T00:53:43.973Z,1.63
2018-01-22T00:54:44.062Z,1.63
2018-01-22T00:55:43.939Z,1.65
2018-01-22T00:56:44.079Z,1.57
2018-01-22T00:57:43.986Z,1.58
2018-01-22T00:58:43.885Z,1.55
2018-01-22T00:59:43.940Z,1.55
2018-01-22T01:00:43.848Z,1.55
2018-01-22T01:01:43.921Z,1.55
2018-01-22T01:02:43.931Z,1.5
2018-01-22T01:03:43.872Z,1.51
2018-01-22T01:04:44.059Z,1.48
2018-01-22T01:05:43.953Z,1.49
2018-01-22T01:06:44.058Z,1.47
2018-01-22T01:07:43.964Z,1.47
2018-01-22T01:09:44.016Z,1.48
2018-01-22T01:10:43.997Z,1.48
2018-01-22T01:11:43.974Z,1.46
2018-01-22T01:12:44.730Z,1.47
2018-01-22T01:13:44.003Z,1.5
2018-01-22T01:14:44.020Z,1.5
2018-01-22T01:15:44.021Z,1.48
2018-01-22T01:16:44.165Z,1.5
2018-01-22T01:17:43.930Z,1.52
2018-01-22T01:18:43.997Z,1.54
2018-01-22T01:19:43.969Z,1.5
2018-01-22T01:20:44.053Z,1.47
2018-01-22T01:21:44.146Z,1.47
2018-01-22T01:22:43.994Z,1.49
2018-01-22T01:23:44.051Z,1.49
2018-01-22T01:24:44.013Z,1.5
2018-01-22T01:25:44.000Z,1.51
2018-01-22T01:26:44.031Z,1.49
2018-01-22T01:27:43.961Z,1.49
2018-01-22T01:28:44.123Z,1.49
2018-01-22T01:29:44.050Z,1.52
2018-01-22T01:30:44.728Z,1.51
2018-01-22T01:31:44.039Z,1.5
2018-01-22T01:32:44.054Z,1.49
2018-01-22T01:33:44.119Z,1.46
2018-01-22T01:34:44.008Z,1.48
2018-01-22T01:35:44.030Z,1.49
2018-01-22T01:36:43.960Z,1.53
2018-01-22T01:37:44.241Z,1.49
2018-01-22T01:40:01.028Z,1.51
2018-01-22T01:40:44.320Z,1.48
2018-01-22T01:41:44.073Z,1.48
2018-01-22T01:42:44.090Z,1.51
2018-01-22T01:45:44.620Z,1.51
2018-01-22T01:46:43.980Z,1.5
2018-01-22T01:47:44.023Z,1.45
2018-01-22T01:48:43.994Z,1.48
2018-01-22T01:49:44.005Z,1.47
2018-01-22T01:50:44.092Z,1.46
2018-01-22T01:51:44.146Z,1.45
2018-01-22T01:52:43.999Z,1.46
2018-01-22T01:53:44.003Z,1.44
2018-01-22T01:54:44.159Z,1.43
2018-01-22T01:55:44.026Z,1.39
2018-01-22T01:56:44.006Z,1.42
2018-01-22T01:57:44.003Z,1.43
2018-01-22T01:58:43.993Z,1.45
2018-01-22T01:59:44.058Z,1.44
2018-01-22T02:00:43.996Z,1.41
2018-01-22T02:01:44.041Z,1.41
2018-01-22T02:02:44.109Z,1.41
2018-01-22T02:03:44.836Z,1.43
2018-01-22T02:04:44.113Z,1.45
2018-01-22T02:05:44.030Z,1.41
2018-01-22T02:06:44.294Z,1.42
2018-01-22T02:07:44.035Z,1.39
2018-01-22T02:08:44.182Z,1.36
2018-01-22T02:09:44.032Z,1.39
2018-01-22T02:10:44.103Z,1.38
2018-01-22T02:11:44.124Z,1.37
2018-01-22T02:12:44.211Z,1.38
2018-01-22T02:13:44.061Z,1.4
2018-01-22T02:14:44.045Z,1.39
2018-01-22T02:15:44.084Z,1.39
2018-01-22T02:16:44.027Z,1.39
2018-01-22T02:17:44.077Z,1.41
2018-01-22T02:18:44.036Z,1.43
2018-01-22T02:19:44.840Z,1.43
2018-01-22T02:20:44.042Z,1.45
2018-01-22T02:21:44.011Z,1.45
2018-01-22T02:25:04.725Z,1.45
2018-01-22T02:25:44.162Z,1.45
2018-01-22T02:27:44.086Z,1.48
2018-01-22T02:28:44.056Z,1.5
2018-01-22T02:29:44.134Z,1.5
2018-01-22T02:30:44.053Z,1.48
2018-01-22T02:31:44.086Z,1.46
2018-01-22T02:32:44.037Z,1.48
2018-01-22T02:33:44.036Z,1.48
2018-01-22T02:34:44.273Z,1.48
2018-01-22T02:35:44.110Z,1.47
2018-01-22T02:36:44.111Z,1.5
2018-01-22T02:37:44.830Z,1.49
2018-01-22T02:38:44.096Z,1.5
2018-01-22T02:39:44.092Z,1.5
2018-01-22T02:40:44.135Z,1.51
2018-01-22T02:41:44.115Z,1.51
2018-01-22T02:42:44.266Z,1.5
2018-01-22T02:43:44.108Z,1.46
2018-01-22T02:44:44.136Z,1.47
2018-01-22T02:47:44.144Z,1.48
2018-01-22T02:48:44.253Z,1.48
2018-01-22T02:49:44.697Z,1.49
2018-01-22T02:50:44.089Z,1.52
2018-01-22T02:51:44.093Z,1.5
2018-01-22T02:52:44.114Z,1.53
2018-01-22T02:53:44.094Z,1.51
2018-01-22T02:54:44.128Z,1.5
2018-01-22T02:55:45.122Z,1.51
2018-01-22T02:56:44.115Z,1.52
2018-01-22T02:57:44.254Z,1.54
2018-01-22T02:58:44.831Z,1.57
2018-01-22T02:59:44.092Z,1.55
2018-01-22T03:00:44.102Z,1.56
2018-01-22T03:01:44.143Z,1.56
2018-01-22T03:02:44.086Z,1.55
2018-01-22T03:03:44.123Z,1.56
2018-01-22T03:04:44.188Z,1.58
2018-01-22T03:05:44.135Z,1.58
2018-01-22T03:06:44.109Z,1.58
2018-01-22T03:08:44.309Z,1.54
2018-01-22T03:09:44.143Z,1.54
2018-01-22T03:10:44.147Z,1.51
2018-01-22T03:11:44.107Z,1.52
2018-01-22T03:12:44.167Z,1.54
2018-01-22T03:13:44.184Z,1.55
2018-01-22T03:14:44.110Z,1.54
2018-01-22T03:15:44.131Z,1.52
2018-01-22T03:16:44.114Z,1.52
2018-01-22T03:17:44.104Z,1.53
2018-01-22T03:18:44.239Z,1.55
2018-01-22T03:21:44.360Z,1.56
2018-01-22T03:22:44.123Z,1.58
2018-01-22T03:23:44.165Z,1.57
2018-01-22T03:24:44.131Z,1.57
2018-01-22T03:25:44.139Z,1.57
2018-01-22T03:26:44.128Z,1.58
2018-01-22T03:27:44.130Z,1.56
2018-01-22T03:28:44.148Z,1.55
2018-01-22T03:29:44.156Z,1.56
2018-01-22T03:30:44.148Z,1.55
2018-01-22T03:31:44.129Z,1.56
2018-01-22T03:32:44.150Z,1.56
2018-01-22T03:33:44.180Z,1.56
2018-01-22T03:34:44.240Z,1.54
2018-01-22T03:35:44.143Z,1.55
2018-01-22T03:36:44.163Z,1.56
2018-01-22T03:37:44.155Z,1.58
2018-01-22T03:38:44.206Z,1.58
2018-01-22T03:39:44.169Z,1.57
2018-01-22T03:40:44.179Z,1.56
2018-01-22T03:41:44.158Z,1.57
2018-01-22T03:43:44.230Z,1.59
2018-01-22T03:44:44.177Z,1.6
2018-01-22T03:47:44.390Z,1.63
2018-01-22T03:48:44.171Z,1.62
2018-01-22T03:49:44.148Z,1.61
2018-01-22T03:50:44.145Z,1.63
2018-01-22T03:51:44.158Z,1.64
2018-01-22T03:52:44.216Z,1.68
2018-01-22T03:53:44.186Z,1.68
2018-01-22T03:54:44.148Z,1.66
2018-01-22T03:55:44.201Z,1.65
2018-01-22T03:56:44.196Z,1.67
2018-01-22T03:57:44.511Z,1.65
2018-01-22T03:58:44.197Z,1.68
2018-01-22T03:59:44.186Z,1.69
2018-01-22T04:00:44.170Z,1.7
2018-01-22T04:01:44.174Z,1.66
2018-01-22T04:02:44.224Z,1.69
2018-01-22T04:03:44.184Z,1.7
2018-01-22T04:04:44.209Z,1.7
2018-01-22T04:05:44.173Z,1.71
2018-01-22T04:06:44.180Z,1.73
2018-01-22T04:07:44.187Z,1.72
2018-01-22T04:08:44.217Z,1.74
2018-01-22T04:09:44.207Z,1.74
2018-01-22T04:10:44.214Z,1.74
2018-01-22T04:11:44.190Z,1.76
2018-01-22T04:12:44.199Z,1.77
2018-01-22T04:13:44.260Z,1.73
2018-01-22T04:14:44.234Z,1.74
2018-01-22T04:15:44.222Z,1.73
2018-01-22T04:16:44.205Z,1.73
2018-01-22T04:17:44.201Z,1.75
2018-01-22T04:18:44.228Z,1.74
2018-01-22T04:21:44.195Z,1.76
2018-01-22T04:22:44.203Z,1.74
2018-01-22T04:25:51.770Z,1.71
2018-01-22T04:28:44.243Z,1.71
2018-01-22T04:29:44.233Z,1.72
2018-01-22T04:30:44.192Z,1.7
2018-01-22T04:31:44.190Z,1.73
2018-01-22T04:32:44.242Z,1.71
2018-01-22T04:33:44.215Z,1.71
2018-01-22T04:34:44.257Z,1.71
2018-01-22T04:35:44.308Z,1.73
2018-01-22T04:36:44.234Z,1.72
2018-01-22T04:37:44.279Z,1.73
2018-01-22T04:38:44.259Z,1.75
2018-01-22T04:39:44.231Z,1.72
2018-01-22T04:40:44.226Z,1.7
2018-01-22T04:41:44.196Z,1.72
2018-01-22T04:42:44.226Z,1.73
2018-01-22T04:43:44.270Z,1.75
2018-01-22T04:44:44.258Z,1.74
2018-01-22T04:45:44.243Z,1.75
2018-01-22T04:48:44.291Z,1.74
2018-01-22T04:49:44.269Z,1.75
2018-01-22T04:50:44.251Z,1.76
2018-01-22T04:51:44.261Z,1.74
2018-01-22T04:52:44.267Z,1.73
2018-01-22T04:53:44.273Z,1.75
2018-01-22T04:54:44.573Z,1.75
2018-01-22T04:55:44.725Z,1.79
2018-01-22T04:56:44.256Z,1.78
2018-01-22T04:57:44.226Z,1.79
2018-01-22T05:00:44.294Z,1.81
2018-01-22T05:01:44.253Z,1.79
2018-01-22T05:02:44.260Z,1.78
2018-01-22T05:03:44.303Z,1.8
2018-01-22T05:04:44.298Z,1.79
2018-01-22T05:05:44.294Z,1.81
2018-01-22T05:06:44.276Z,1.8
2018-01-22T05:07:44.266Z,1.81
2018-01-22T05:08:44.254Z,1.82
2018-01-22T05:09:45.743Z,1.84
2018-01-22T05:10:44.457Z,1.83
2018-01-22T05:11:44.423Z,1.86
2018-01-22T05:12:44.295Z,1.86
2018-01-22T05:13:44.292Z,1.84
2018-01-22T05:14:44.281Z,1.85
2018-01-22T05:15:44.300Z,1.87
2018-01-22T05:16:44.254Z,1.87
2018-01-22T05:17:44.263Z,1.87
2018-01-22T05:18:44.288Z,1.9
2018-01-22T05:19:44.317Z,1.9
2018-01-22T05:20:44.279Z,1.92
2018-01-22T05:21:44.303Z,1.92
2018-01-22T05:22:44.269Z,1.93
2018-01-22T05:23:44.274Z,1.93
2018-01-22T05:24:44.255Z,1.9
2018-01-22T05:25:44.275Z,1.89
2018-01-22T05:26:44.298Z,1.9
2018-01-22T05:27:44.294Z,1.9
2018-01-22T05:28:44.308Z,1.89
2018-01-22T05:29:44.274Z,1.89
2018-01-22T05:30:44.296Z,1.89
2018-01-22T05:31:44.271Z,1.91
2018-01-22T05:32:44.323Z,1.96
2018-01-22T05:33:44.281Z,1.95
2018-01-22T05:34:44.341Z,1.95
2018-01-22T05:35:44.308Z,1.94
2018-01-22T05:36:45.237Z,1.91
2018-01-22T05:37:44.322Z,1.92
2018-01-22T05:38:44.305Z,1.92
2018-01-22T05:39:44.301Z,1.92
2018-01-22T05:40:44.333Z,1.9
2018-01-22T05:41:44.325Z,1.92
2018-01-22T05:42:44.311Z,1.94
2018-01-22T05:43:44.293Z,1.93
2018-01-22T05:44:44.308Z,1.92
2018-01-22T05:45:44.374Z,1.93
2018-01-22T05:46:44.331Z,1.94
2018-01-22T05:47:44.334Z,1.94
2018-01-22T05:48:44.378Z,1.92
2018-01-22T05:49:44.302Z,1.92
2018-01-22T05:50:44.339Z,1.93
2018-01-22T05:51:44.304Z,1.92
2018-01-22T05:52:44.319Z,1.91
2018-01-22T05:53:44.325Z,1.91
2018-01-22T05:54:44.343Z,1.91
2018-01-22T05:55:44.304Z,1.92
2018-01-22T05:56:44.326Z,1.92
2018-01-22T05:57:44.320Z,1.91
2018-01-22T05:58:44.324Z,1.91
2018-01-22T05:59:44.340Z,1.91
2018-01-22T06:00:44.304Z,1.91
2018-01-22T06:01:44.314Z,1.91
2018-01-22T06:02:44.702Z,1.9
2018-01-22T06:03:44.309Z,1.91
2018-01-22T06:04:44.376Z,1.91
2018-01-22T06:05:44.358Z,1.92
2018-01-22T06:06:44.347Z,1.94
2018-01-22T06:07:44.427Z,1.94
2018-01-22T06:08:44.378Z,1.95
2018-01-22T06:09:44.325Z,1.91
2018-01-22T06:10:44.326Z,1.91
2018-01-22T06:11:44.346Z,1.91
2018-01-22T06:12:44.361Z,1.92
2018-01-22T06:13:44.351Z,1.94
2018-01-22T06:14:44.382Z,1.94
2018-01-22T06:15:44.372Z,1.96
2018-01-22T06:16:44.350Z,1.97
2018-01-22T06:17:44.549Z,1.96
2018-01-22T06:18:44.368Z,1.96
2018-01-22T06:19:44.344Z,1.98
2018-01-22T06:20:44.364Z,1.98
2018-01-22T06:21:44.348Z,2
2018-01-22T06:22:44.506Z,1.99
2018-01-22T06:23:44.370Z,1.99
2018-01-22T06:24:44.339Z,1.99
2018-01-22T06:25:44.346Z,2
2018-01-22T06:26:44.341Z,2.02
2018-01-22T06:28:44.550Z,2.02
2018-01-22T06:29:44.360Z,2.02
2018-01-22T06:30:44.410Z,2.01
2018-01-22T06:31:44.357Z,1.99
2018-01-22T06:32:44.343Z,1.99
2018-01-22T06:33:44.346Z,1.99
2018-01-22T06:34:44.395Z,1.99
2018-01-22T06:35:44.425Z,2
2018-01-22T06:36:44.399Z,2.01
2018-01-22T06:37:44.434Z,2.01
2018-01-22T06:38:44.414Z,2
2018-01-22T06:39:44.456Z,2
2018-01-22T06:40:44.382Z,2
2018-01-22T06:41:44.411Z,1.98
2018-01-22T06:42:44.401Z,1.97
2018-01-22T06:43:44.398Z,1.97
2018-01-22T06:44:44.458Z,1.97
2018-01-22T06:45:44.459Z,1.96
2018-01-22T06:46:44.542Z,1.97
2018-01-22T06:47:44.404Z,1.97
2018-01-22T06:48:44.393Z,1.97
2018-01-22T06:49:44.400Z,1.95
2018-01-22T06:50:44.394Z,1.95
2018-01-22T06:51:44.426Z,1.96
2018-01-22T06:52:44.555Z,1.95
2018-01-22T06:53:44.429Z,1.96
2018-01-22T06:54:44.413Z,1.95
2018-01-22T06:55:44.459Z,1.96
2018-01-22T06:56:44.451Z,1.98
2018-01-22T06:57:44.444Z,1.98
2018-01-22T06:58:44.462Z,1.99
2018-01-22T07:02:44.463Z,1.98
2018-01-22T07:03:44.574Z,1.98
2018-01-22T07:04:44.572Z,1.98
2018-01-22T07:05:43.441Z,2
2018-01-22T07:06:43.483Z,2.01
2018-01-22T07:07:43.487Z,1.98
2018-01-22T07:08:43.497Z,1.98
2018-01-22T07:09:43.867Z,1.99
2018-01-22T07:10:43.552Z,2
2018-01-22T07:11:43.476Z,2.01
2018-01-22T07:12:43.474Z,2.02
2018-01-22T07:13:43.459Z,2.02
2018-01-22T07:17:10.533Z,2.03
2018-01-22T07:17:43.466Z,2.04
2018-01-22T07:18:43.459Z,2.04
2018-01-22T07:19:45.254Z,2.05
2018-01-22T07:20:43.434Z,2.05
2018-01-22T07:21:43.519Z,2.04
2018-01-22T07:22:43.478Z,2.06
2018-01-22T07:23:43.452Z,2.05
2018-01-22T07:24:43.547Z,2.03
2018-01-22T07:25:43.487Z,2.02
2018-01-22T07:26:43.490Z,2.02
2018-01-22T07:27:43.497Z,2.01
2018-01-22T07:28:43.711Z,2.01
2018-01-22T07:29:43.510Z,2
2018-01-22T07:30:43.560Z,1.97
2018-01-22T07:31:43.497Z,1.99
2018-01-22T07:32:43.455Z,2
2018-01-22T07:33:43.589Z,1.99
2018-01-22T07:34:43.454Z,1.98
2018-01-22T07:37:43.601Z,2
2018-01-22T07:38:44.036Z,2.01
2018-01-22T07:39:43.530Z,2.02
2018-01-22T07:40:43.520Z,2.02
2018-01-22T07:41:43.531Z,2
2018-01-22T07:42:43.528Z,2.01
2018-01-22T07:43:43.560Z,2.01
2018-01-22T07:44:43.552Z,2.01
2018-01-22T07:45:43.527Z,2.01
2018-01-22T07:46:43.882Z,2.01
2018-01-22T07:47:43.566Z,2.02
2018-01-22T07:48:43.512Z,2.05
2018-01-22T07:49:43.527Z,2.06
2018-01-22T07:50:43.497Z,2.06
2018-01-22T07:51:43.528Z,2.05
2018-01-22T07:52:43.488Z,2.05
2018-01-22T07:53:43.527Z,2.04
2018-01-22T07:54:43.503Z,2.04
2018-01-22T07:55:43.792Z,2.04
2018-01-22T07:56:43.499Z,2.05
2018-01-22T07:57:43.547Z,2.05
2018-01-22T07:58:43.547Z,2.06
2018-01-22T07:59:43.549Z,2.06
2018-01-22T08:00:43.558Z,2.07
2018-01-22T08:01:43.603Z,2.06
2018-01-22T08:02:43.515Z,2.07
2018-01-22T08:04:43.529Z,2.09
2018-01-22T08:05:43.511Z,2.09
2018-01-22T08:06:43.601Z,2.11
2018-01-22T08:07:43.733Z,2.11
2018-01-22T08:08:43.645Z,2.13
2018-01-22T08:09:43.628Z,2.15
2018-01-22T08:10:43.719Z,2.17
2018-01-22T08:11:43.639Z,2.17
2018-01-22T08:12:43.643Z,2.19
2018-01-22T08:13:43.659Z,2.19
2018-01-22T08:14:43.662Z,2.19
2018-01-22T08:15:43.693Z,2.22
2018-01-22T08:18:44.183Z,2.27
2018-01-22T08:19:43.640Z,2.29
2018-01-22T08:20:43.702Z,2.31
2018-01-22T08:21:43.845Z,2.34
2018-01-22T08:22:43.636Z,2.36
2018-01-22T08:23:43.643Z,2.37
2018-01-22T08:24:43.632Z,2.39
2018-01-22T08:25:43.681Z,2.4
2018-01-22T08:26:43.640Z,2.42
2018-01-22T08:27:43.634Z,2.44
2018-01-22T08:28:43.652Z,2.45
2018-01-22T08:29:43.668Z,2.46
2018-01-22T08:30:43.669Z,2.49
2018-01-22T08:31:43.661Z,2.5
2018-01-22T08:32:43.679Z,2.51
2018-01-22T08:33:43.673Z,2.53
2018-01-22T08:34:43.641Z,2.58
2018-01-22T08:35:43.656Z,2.58
2018-01-22T08:36:43.661Z,2.59
2018-01-22T08:37:44.007Z,2.62
2018-01-22T08:38:43.823Z,2.67
2018-01-22T08:39:43.818Z,2.68
2018-01-22T08:40:43.831Z,2.68
2018-01-22T08:41:43.820Z,2.7
2018-01-22T08:42:43.940Z,2.71
2018-01-22T08:43:43.814Z,2.72
2018-01-22T08:44:43.837Z,2.73
2018-01-22T08:45:43.837Z,2.73
2018-01-22T08:46:43.796Z,2.76
2018-01-22T08:47:43.906Z,2.77
2018-01-22T08:48:43.834Z,2.78
2018-01-22T08:49:44.036Z,2.79
2018-01-22T08:50:43.807Z,2.81
2018-01-22T08:51:43.813Z,2.83
2018-01-22T08:52:44.169Z,2.85
2018-01-22T08:53:43.834Z,2.86
2018-01-22T08:54:43.832Z,2.89
2018-01-22T08:55:43.882Z,2.89
2018-01-22T08:56:43.856Z,2.9
2018-01-22T08:57:43.883Z,2.92
2018-01-22T08:58:43.873Z,2.94
2018-01-22T08:59:43.874Z,2.96
2018-01-22T09:00:43.803Z,2.97
2018-01-22T09:01:43.864Z,2.99
2018-01-22T09:02:43.857Z,3
2018-01-22T09:03:43.834Z,3
2018-01-22T09:04:43.952Z,3.01
2018-01-22T09:05:43.953Z,3.01
2018-01-22T09:06:43.874Z,3.02
2018-01-22T09:07:44.113Z,3.03
2018-01-22T09:08:43.933Z,3.04
2018-01-22T09:09:43.975Z,3.05
2018-01-22T09:10:43.902Z,3.06
2018-01-22T09:11:43.935Z,3.07
2018-01-22T09:12:43.946Z,3.08
2018-01-22T09:13:43.936Z,3.09
2018-01-22T09:14:44.001Z,3.1
2018-01-22T09:15:43.968Z,3.1
2018-01-22T09:16:43.969Z,3.12
2018-01-22T09:17:44.102Z,3.12
2018-01-22T09:18:44.087Z,3.15
2018-01-22T09:19:58.578Z,3.17
2018-01-22T09:20:43.977Z,3.17
2018-01-22T09:21:43.920Z,3.18
2018-01-22T09:22:43.900Z,3.19
2018-01-22T09:23:43.940Z,3.22
2018-01-22T09:24:43.936Z,3.22
2018-01-22T09:25:43.957Z,3.24
2018-01-22T09:26:44.000Z,3.24
2018-01-22T09:27:43.932Z,3.27
2018-01-22T09:28:43.933Z,3.28
2018-01-22T09:29:43.928Z,3.29
2018-01-22T09:30:43.989Z,3.31
2018-01-22T09:31:44.058Z,3.33
2018-01-22T09:32:43.952Z,3.33
2018-01-22T09:33:43.947Z,3.35
2018-01-22T09:34:43.969Z,3.36
2018-01-22T09:35:43.976Z,3.37
2018-01-22T09:36:44.110Z,3.39
2018-01-22T09:37:44.106Z,3.4
2018-01-22T09:38:44.121Z,3.4
2018-01-22T09:39:44.160Z,3.41
2018-01-22T09:40:44.173Z,3.42
2018-01-22T09:41:44.198Z,3.46
2018-01-22T09:42:44.066Z,3.48
2018-01-22T09:43:44.071Z,3.49
2018-01-22T09:44:44.060Z,3.5
2018-01-22T09:45:44.036Z,3.51
2018-01-22T09:46:44.039Z,3.52
2018-01-22T09:47:44.083Z,3.55
2018-01-22T09:48:44.087Z,3.56
2018-01-22T09:49:44.061Z,3.56
2018-01-22T09:50:44.060Z,3.58
2018-01-22T09:51:44.040Z,3.6
2018-01-22T09:52:44.036Z,3.62
2018-01-22T09:53:44.073Z,3.64
2018-01-22T09:54:44.057Z,3.67
2018-01-22T09:55:44.055Z,3.67
2018-01-22T09:56:44.065Z,3.69
2018-01-22T09:57:44.050Z,3.7
2018-01-22T09:58:44.087Z,3.74
2018-01-22T09:59:44.091Z,3.77
2018-01-22T10:00:44.249Z,3.76
2018-01-22T10:01:44.059Z,3.78
2018-01-22T10:02:44.082Z,3.82
2018-01-22T10:03:44.066Z,3.84
2018-01-22T10:04:44.071Z,3.87
2018-01-22T10:05:44.146Z,3.88
2018-01-22T10:06:44.201Z,3.89
2018-01-22T10:07:44.231Z,3.9
2018-01-22T10:08:44.266Z,3.91
2018-01-22T10:09:44.280Z,3.92
2018-01-22T10:10:44.172Z,3.94
2018-01-22T10:11:44.227Z,3.96
2018-01-22T10:12:44.104Z,4.01
2018-01-22T10:13:44.083Z,4
2018-01-22T10:14:44.126Z,4.07
2018-01-22T10:15:44.132Z,4.12
2018-01-22T10:16:44.190Z,4.17
2018-01-22T10:17:44.147Z,4.22
2018-01-22T10:18:44.249Z,4.24
2018-01-22T10:19:44.178Z,4.25
2018-01-22T10:20:44.118Z,4.27
2018-01-22T10:21:44.225Z,4.27
2018-01-22T10:22:44.108Z,4.27
2018-01-22T10:23:44.117Z,4.3
2018-01-22T10:24:44.122Z,4.33
2018-01-22T10:25:44.097Z,4.38
2018-01-22T10:26:44.392Z,4.4
2018-01-22T10:27:44.194Z,4.43
2018-01-22T10:28:44.114Z,4.43
2018-01-22T10:29:44.132Z,4.47
2018-01-22T10:30:44.227Z,4.49
2018-01-22T10:31:44.147Z,4.52
2018-01-22T10:32:45.153Z,4.52
2018-01-22T10:33:44.132Z,4.57
2018-01-22T10:34:44.117Z,4.59
2018-01-22T10:35:44.146Z,4.65
2018-01-22T10:36:44.194Z,4.69
2018-01-22T10:37:44.231Z,4.72
2018-01-22T10:38:44.179Z,4.78
2018-01-22T10:39:44.367Z,4.76
2018-01-22T10:40:44.254Z,4.76
2018-01-22T10:41:44.204Z,4.75
2018-01-22T10:42:44.142Z,4.75
2018-01-22T10:43:44.155Z,4.75
2018-01-22T10:44:44.275Z,4.79
2018-01-22T10:45:44.163Z,4.78
2018-01-22T10:46:44.156Z,4.78
2018-01-22T10:47:44.222Z,4.78
2018-01-22T10:48:44.197Z,4.79
2018-01-22T10:49:44.167Z,4.79
2018-01-22T10:50:44.159Z,4.8
2018-01-22T10:51:44.157Z,4.81
2018-01-22T10:52:44.241Z,4.81
2018-01-22T10:53:44.157Z,4.84
2018-01-22T10:54:44.165Z,4.84
2018-01-22T10:55:44.227Z,4.86
2018-01-22T10:56:44.174Z,4.88
2018-01-22T10:57:44.231Z,4.92
2018-01-22T10:58:44.158Z,4.93
2018-01-22T10:59:44.271Z,4.95
2018-01-22T11:00:44.288Z,4.96
2018-01-22T11:01:44.192Z,4.98
2018-01-22T11:02:44.194Z,4.99
2018-01-22T11:03:44.237Z,5.01
2018-01-22T11:04:44.182Z,5.03
2018-01-22T11:05:44.202Z,5.03
2018-01-22T11:06:44.219Z,5.06
2018-01-22T11:07:44.571Z,5.08
2018-01-22T11:08:43.585Z,5.1
2018-01-22T11:09:43.537Z,5.14
2018-01-22T11:10:43.519Z,5.17
2018-01-22T11:11:43.525Z,5.18
2018-01-22T11:12:43.556Z,5.19
2018-01-22T11:13:43.661Z,5.21
2018-01-22T11:14:43.606Z,5.22
2018-01-22T11:15:43.627Z,5.23
2018-01-22T11:16:43.565Z,5.23
2018-01-22T11:17:43.546Z,5.24
2018-01-22T11:18:43.572Z,5.26
2018-01-22T11:19:43.557Z,5.27
2018-01-22T11:20:43.536Z,5.29
2018-01-22T11:21:43.543Z,5.3
2018-01-22T11:22:43.597Z,5.31
2018-01-22T11:23:43.517Z,5.34
2018-01-22T11:24:43.554Z,5.38
2018-01-22T11:25:43.563Z,5.42
2018-01-22T11:26:43.584Z,5.41
2018-01-22T11:27:43.558Z,5.44
2018-01-22T11:28:43.567Z,5.49
2018-01-22T11:29:43.538Z,5.53
2018-01-22T11:30:43.574Z,5.55
2018-01-22T11:31:43.556Z,5.59
2018-01-22T11:32:43.542Z,5.61
2018-01-22T11:33:43.560Z,5.63
2018-01-22T11:34:43.908Z,5.64
2018-01-22T11:35:43.549Z,5.63
2018-01-22T11:36:43.544Z,5.63
2018-01-22T11:37:43.545Z,5.63
2018-01-22T11:38:43.653Z,5.63
2018-01-22T11:39:43.722Z,5.63
2018-01-22T11:40:43.626Z,5.66
2018-01-22T11:41:43.588Z,5.66
2018-01-22T11:42:43.650Z,5.66
2018-01-22T11:43:43.597Z,5.66
2018-01-22T11:44:43.682Z,5.67
2018-01-22T11:45:43.639Z,5.66
2018-01-22T11:46:43.685Z,5.66
2018-01-22T11:47:43.631Z,5.67
2018-01-22T11:48:43.664Z,5.7
2018-01-22T11:49:43.971Z,5.8
2018-01-22T11:50:43.615Z,5.83
2018-01-22T11:51:43.613Z,5.9
2018-01-22T11:52:43.645Z,5.9
2018-01-22T11:53:43.609Z,5.9
2018-01-22T11:54:43.668Z,5.9
2018-01-22T11:55:43.652Z,5.92
2018-01-22T11:56:43.627Z,5.92
2018-01-22T11:57:43.637Z,5.91
2018-01-22T11:58:43.688Z,5.92
2018-01-22T11:59:43.866Z,5.94
2018-01-22T12:00:43.742Z,5.98
2018-01-22T12:01:43.623Z,6
2018-01-22T12:02:43.651Z,6.02
2018-01-22T12:03:43.637Z,6.04
2018-01-22T12:04:43.713Z,6.06
2018-01-22T12:05:43.617Z,6.11
2018-01-22T12:06:43.711Z,6.13
2018-01-22T12:07:43.838Z,6.16
2018-01-22T12:08:44.194Z,6.17
2018-01-22T12:09:44.301Z,6.22
2018-01-22T12:10:44.172Z,6.24
2018-01-22T12:11:44.269Z,6.26
2018-01-22T12:12:44.299Z,6.27
2018-01-22T12:13:44.183Z,6.3
2018-01-22T12:14:44.642Z,6.3
2018-01-22T12:15:44.175Z,6.34
2018-01-22T12:16:44.198Z,6.34
2018-01-22T12:17:44.231Z,6.35
2018-01-22T12:18:44.227Z,6.38
2018-01-22T12:19:44.256Z,6.4
2018-01-22T12:20:44.267Z,6.42
2018-01-22T12:21:44.202Z,6.42
2018-01-22T12:22:44.299Z,6.43
2018-01-22T12:23:44.202Z,6.41
2018-01-22T12:24:44.205Z,6.4
2018-01-22T12:25:44.562Z,6.41
2018-01-22T12:26:44.170Z,6.41
2018-01-22T12:27:45.169Z,6.41
2018-01-22T12:28:44.213Z,6.42
2018-01-22T12:29:44.203Z,6.42
2018-01-22T12:30:44.218Z,6.44
2018-01-22T12:31:44.213Z,6.44
2018-01-22T12:32:44.314Z,6.45
2018-01-22T12:33:44.218Z,6.46
2018-01-22T12:34:44.210Z,6.48
2018-01-22T12:35:44.220Z,6.5
2018-01-22T12:36:44.197Z,6.5
2018-01-22T12:37:44.291Z,6.53
2018-01-22T12:38:44.328Z,6.55
2018-01-22T12:39:44.270Z,6.56
2018-01-22T12:40:44.292Z,6.57
2018-01-22T12:41:44.381Z,6.62
2018-01-22T12:42:44.418Z,6.63
2018-01-22T12:43:44.343Z,6.64
2018-01-22T12:44:44.421Z,6.66
2018-01-22T12:45:44.481Z,6.68
2018-01-22T12:46:44.387Z,6.71
2018-01-22T12:47:44.431Z,6.73
2018-01-22T12:48:44.301Z,6.73
2018-01-22T12:49:44.356Z,6.75
2018-01-22T12:50:44.294Z,6.76
2018-01-22T12:51:44.283Z,6.75
2018-01-22T12:52:44.310Z,6.76
2018-01-22T12:53:45.026Z,6.77
2018-01-22T12:54:44.318Z,6.81
2018-01-22T12:55:44.297Z,6.82
2018-01-22T12:56:44.288Z,6.81
2018-01-22T12:57:44.327Z,6.8
2018-01-22T12:58:44.330Z,6.8
2018-01-22T12:59:44.288Z,6.8
2018-01-22T13:00:44.308Z,6.79
2018-01-22T13:01:44.317Z,6.78
2018-01-22T13:02:44.317Z,6.78
2018-01-22T13:03:44.325Z,6.77
2018-01-22T13:04:44.303Z,6.78
2018-01-22T13:05:44.365Z,6.77
2018-01-22T13:06:44.282Z,6.77
2018-01-22T13:07:44.293Z,6.8
2018-01-22T13:08:44.565Z,6.8
2018-01-22T13:09:44.321Z,6.8
2018-01-22T13:10:44.399Z,6.82
2018-01-22T13:11:44.327Z,6.84
2018-01-22T13:12:44.418Z,6.86
2018-01-22T13:13:44.370Z,6.86
2018-01-22T13:14:44.343Z,6.86
2018-01-22T13:15:44.332Z,6.87
2018-01-22T13:16:44.323Z,6.89
2018-01-22T13:17:44.313Z,6.91
2018-01-22T13:18:44.482Z,6.94
2018-01-22T13:19:44.407Z,6.96
2018-01-22T13:20:44.381Z,6.95
2018-01-22T13:21:44.329Z,6.95
2018-01-22T13:22:44.341Z,6.93
2018-01-22T13:23:44.412Z,6.94
2018-01-22T13:24:44.460Z,6.93
2018-01-22T13:25:44.430Z,6.92
2018-01-22T13:26:44.387Z,6.94
2018-01-22T13:27:44.323Z,6.91
2018-01-22T13:28:44.382Z,6.93
2018-01-22T13:29:44.367Z,6.92
2018-01-22T13:30:44.364Z,6.9
2018-01-22T13:31:44.371Z,6.9
2018-01-22T13:32:44.325Z,6.89
2018-01-22T13:33:44.340Z,6.88
2018-01-22T13:34:44.346Z,6.89
2018-01-22T13:35:44.315Z,6.89
2018-01-22T13:36:44.401Z,6.88
2018-01-22T13:37:44.361Z,6.88
2018-01-22T13:38:44.490Z,6.89
2018-01-22T13:39:44.358Z,6.9
2018-01-22T13:40:44.376Z,6.9
2018-01-22T13:41:44.353Z,6.89
2018-01-22T13:42:44.359Z,6.89
2018-01-22T13:43:44.447Z,6.88
2018-01-22T13:44:44.403Z,6.88
2018-01-22T13:45:44.365Z,6.88
2018-01-22T13:46:44.481Z,6.87
2018-01-22T13:47:44.465Z,6.87
2018-01-22T13:48:44.497Z,6.87
2018-01-22T13:49:44.499Z,6.89
2018-01-22T13:50:44.341Z,6.9
2018-01-22T13:51:44.354Z,6.91
2018-01-22T13:52:44.386Z,6.92
2018-01-22T13:53:44.404Z,6.94
2018-01-22T13:54:44.426Z,6.94
2018-01-22T13:55:44.366Z,6.92
2018-01-22T13:56:44.359Z,6.93
2018-01-22T13:57:44.379Z,6.91
2018-01-22T13:58:44.362Z,6.91